sensor_id;sensor_type;location;lat;lon;timestamp;P1;durP1;ratioP1;P2;durP2;ratioP2
15342;SDS011;7771;48.478;8.936;2022-10-17T00:02:12;5.57;;;3.00;;
15342;SDS011;7771;48.478;8.936;2022-10-17T00:04:38;6.73;;;3.97;;
15342;SDS011;7771;48.478;8.936;2022-10-17T00:07:05;6.63;;;3.40;;
15342;SDS011;7771;48.478;8.936;2022-10-17T00:09:31;6.93;;;3.20;;
15342;SDS011;7771;48.478;8.936;2022-10-17T00:11:58;3.77;;;3.10;;
15342;SDS011;7771;48.478;8.936;2022-10-17T00:14:25;4.13;;;3.33;;
15342;SDS011;7771;48.478;8.936;2022-10-17T00:16:52;7.13;;;3.20;;
15342;SDS011;7771;48.478;8.936;2022-10-17T00:19:19;6.00;;;3.30;;
15342;SDS011;7771;48.478;8.936;2022-10-17T00:21:47;4.60;;;2.90;;
15342;SDS011;7771;48.478;8.936;2022-10-17T00:24:13;6.90;;;3.67;;
15342;SDS011;7771;48.478;8.936;2022-10-17T00:26:40;5.97;;;3.53;;
15342;SDS011;7771;48.478;8.936;2022-10-17T00:29:08;5.53;;;3.50;;
15342;SDS011;7771;48.478;8.936;2022-10-17T00:31:35;5.33;;;3.60;;
15342;SDS011;7771;48.478;8.936;2022-10-17T00:34:02;6.90;;;3.40;;
15342;SDS011;7771;48.478;8.936;2022-10-17T00:36:29;4.10;;;2.90;;
15342;SDS011;7771;48.478;8.936;2022-10-17T00:38:57;4.77;;;2.77;;
15342;SDS011;7771;48.478;8.936;2022-10-17T00:41:24;3.07;;;2.73;;
15342;SDS011;7771;48.478;8.936;2022-10-17T00:43:51;3.93;;;3.10;;
15342;SDS011;7771;48.478;8.936;2022-10-17T00:46:18;6.10;;;3.50;;
15342;SDS011;7771;48.478;8.936;2022-10-17T00:48:44;5.80;;;3.27;;
15342;SDS011;7771;48.478;8.936;2022-10-17T00:51:11;3.53;;;2.80;;
15342;SDS011;7771;48.478;8.936;2022-10-17T00:53:37;4.93;;;3.03;;
15342;SDS011;7771;48.478;8.936;2022-10-17T00:56:05;3.43;;;2.90;;
15342;SDS011;7771;48.478;8.936;2022-10-17T00:58:32;3.63;;;3.10;;
15342;SDS011;7771;48.478;8.936;2022-10-17T01:00:58;6.90;;;3.00;;
15342;SDS011;7771;48.478;8.936;2022-10-17T01:03:25;5.57;;;3.30;;
15342;SDS011;7771;48.478;8.936;2022-10-17T01:05:52;3.67;;;3.10;;
15342;SDS011;7771;48.478;8.936;2022-10-17T01:08:18;3.77;;;3.07;;
15342;SDS011;7771;48.478;8.936;2022-10-17T01:13:52;9.00;;;3.10;;
15342;SDS011;7771;48.478;8.936;2022-10-17T01:18:58;11.23;;;3.47;;
15342;SDS011;7771;48.478;8.936;2022-10-17T01:21:29;3.77;;;3.13;;
15342;SDS011;7771;48.478;8.936;2022-10-17T01:24:17;4.30;;;3.03;;
15342;SDS011;7771;48.478;8.936;2022-10-17T01:27:24;4.60;;;3.17;;
15342;SDS011;7771;48.478;8.936;2022-10-17T01:29:52;3.27;;;2.57;;
15342;SDS011;7771;48.478;8.936;2022-10-17T01:32:22;7.13;;;2.83;;
15342;SDS011;7771;48.478;8.936;2022-10-17T01:34:53;4.57;;;3.10;;
15342;SDS011;7771;48.478;8.936;2022-10-17T01:37:20;6.97;;;2.70;;
15342;SDS011;7771;48.478;8.936;2022-10-17T01:39:47;4.57;;;3.13;;
15342;SDS011;7771;48.478;8.936;2022-10-17T01:44:55;7.40;;;2.80;;
15342;SDS011;7771;48.478;8.936;2022-10-17T01:47:25;4.87;;;3.07;;
15342;SDS011;7771;48.478;8.936;2022-10-17T01:49:54;2.90;;;2.60;;
15342;SDS011;7771;48.478;8.936;2022-10-17T01:52:22;3.00;;;2.80;;
15342;SDS011;7771;48.478;8.936;2022-10-17T01:54:50;3.20;;;2.57;;
15342;SDS011;7771;48.478;8.936;2022-10-17T01:57:23;4.73;;;3.03;;
15342;SDS011;7771;48.478;8.936;2022-10-17T01:59:56;4.93;;;3.20;;
15342;SDS011;7771;48.478;8.936;2022-10-17T02:02:24;7.83;;;2.80;;
15342;SDS011;7771;48.478;8.936;2022-10-17T02:04:51;3.60;;;2.80;;
15342;SDS011;7771;48.478;8.936;2022-10-17T02:07:17;3.73;;;3.00;;
15342;SDS011;7771;48.478;8.936;2022-10-17T02:09:45;3.83;;;2.90;;
15342;SDS011;7771;48.478;8.936;2022-10-17T02:12:19;3.97;;;2.43;;
15342;SDS011;7771;48.478;8.936;2022-10-17T02:15:24;7.63;;;3.20;;
15342;SDS011;7771;48.478;8.936;2022-10-17T02:17:42;4.30;;;3.00;;
15342;SDS011;7771;48.478;8.936;2022-10-17T02:20:14;5.63;;;3.07;;
15342;SDS011;7771;48.478;8.936;2022-10-17T02:22:42;5.53;;;2.87;;
15342;SDS011;7771;48.478;8.936;2022-10-17T02:25:09;3.87;;;3.03;;
15342;SDS011;7771;48.478;8.936;2022-10-17T02:28:45;4.10;;;3.00;;
15342;SDS011;7771;48.478;8.936;2022-10-17T02:30:28;5.47;;;3.00;;
15342;SDS011;7771;48.478;8.936;2022-10-17T02:33:11;3.37;;;2.73;;
15342;SDS011;7771;48.478;8.936;2022-10-17T02:35:40;3.70;;;2.27;;
15342;SDS011;7771;48.478;8.936;2022-10-17T02:38:06;7.83;;;2.60;;
15342;SDS011;7771;48.478;8.936;2022-10-17T02:40:33;4.37;;;2.87;;
15342;SDS011;7771;48.478;8.936;2022-10-17T02:43:01;4.03;;;2.90;;
15342;SDS011;7771;48.478;8.936;2022-10-17T02:45:28;3.57;;;2.73;;
15342;SDS011;7771;48.478;8.936;2022-10-17T02:47:57;3.40;;;2.40;;
15342;SDS011;7771;48.478;8.936;2022-10-17T02:50:30;4.93;;;2.50;;
15342;SDS011;7771;48.478;8.936;2022-10-17T02:52:55;3.13;;;2.60;;
15342;SDS011;7771;48.478;8.936;2022-10-17T02:55:29;4.10;;;3.00;;
15342;SDS011;7771;48.478;8.936;2022-10-17T02:57:56;3.43;;;2.83;;
15342;SDS011;7771;48.478;8.936;2022-10-17T03:00:21;3.13;;;2.83;;
15342;SDS011;7771;48.478;8.936;2022-10-17T03:02:49;3.27;;;2.97;;
15342;SDS011;7771;48.478;8.936;2022-10-17T03:05:17;5.43;;;2.63;;
15342;SDS011;7771;48.478;8.936;2022-10-17T03:07:43;3.53;;;2.70;;
15342;SDS011;7771;48.478;8.936;2022-10-17T03:10:10;5.53;;;2.67;;
15342;SDS011;7771;48.478;8.936;2022-10-17T03:12:36;4.87;;;2.80;;
15342;SDS011;7771;48.478;8.936;2022-10-17T03:15:03;2.70;;;2.40;;
15342;SDS011;7771;48.478;8.936;2022-10-17T03:17:30;4.07;;;3.47;;
15342;SDS011;7771;48.478;8.936;2022-10-17T03:19:57;5.40;;;3.07;;
15342;SDS011;7771;48.478;8.936;2022-10-17T03:22:24;5.07;;;2.90;;
15342;SDS011;7771;48.478;8.936;2022-10-17T03:24:51;3.60;;;2.73;;
15342;SDS011;7771;48.478;8.936;2022-10-17T03:27:19;3.57;;;2.37;;
15342;SDS011;7771;48.478;8.936;2022-10-17T03:29:46;5.33;;;2.87;;
15342;SDS011;7771;48.478;8.936;2022-10-17T03:32:13;5.40;;;2.90;;
15342;SDS011;7771;48.478;8.936;2022-10-17T03:34:40;5.10;;;4.00;;
15342;SDS011;7771;48.478;8.936;2022-10-17T03:37:07;3.30;;;2.80;;
15342;SDS011;7771;48.478;8.936;2022-10-17T03:39:34;5.97;;;2.83;;
15342;SDS011;7771;48.478;8.936;2022-10-17T03:42:01;5.10;;;3.00;;
15342;SDS011;7771;48.478;8.936;2022-10-17T03:44:28;4.83;;;2.77;;
15342;SDS011;7771;48.478;8.936;2022-10-17T03:46:56;2.27;;;2.07;;
15342;SDS011;7771;48.478;8.936;2022-10-17T03:49:23;3.30;;;2.60;;
15342;SDS011;7771;48.478;8.936;2022-10-17T03:51:50;3.20;;;2.77;;
15342;SDS011;7771;48.478;8.936;2022-10-17T03:54:17;7.83;;;2.73;;
15342;SDS011;7771;48.478;8.936;2022-10-17T03:56:44;4.80;;;2.80;;
15342;SDS011;7771;48.478;8.936;2022-10-17T03:59:12;5.17;;;2.90;;
15342;SDS011;7771;48.478;8.936;2022-10-17T04:01:39;3.83;;;3.20;;
15342;SDS011;7771;48.478;8.936;2022-10-17T04:04:06;3.13;;;2.83;;
15342;SDS011;7771;48.478;8.936;2022-10-17T04:06:33;3.97;;;2.80;;
15342;SDS011;7771;48.478;8.936;2022-10-17T04:09:00;3.87;;;3.10;;
15342;SDS011;7771;48.478;8.936;2022-10-17T04:11:26;5.83;;;3.77;;
15342;SDS011;7771;48.478;8.936;2022-10-17T04:13:53;3.73;;;3.07;;
15342;SDS011;7771;48.478;8.936;2022-10-17T04:16:20;6.50;;;3.30;;
15342;SDS011;7771;48.478;8.936;2022-10-17T04:18:51;3.80;;;2.83;;
15342;SDS011;7771;48.478;8.936;2022-10-17T04:21:14;4.73;;;2.50;;
15342;SDS011;7771;48.478;8.936;2022-10-17T04:23:41;4.03;;;2.93;;
15342;SDS011;7771;48.478;8.936;2022-10-17T04:26:08;5.60;;;3.33;;
15342;SDS011;7771;48.478;8.936;2022-10-17T04:28:35;4.47;;;3.10;;
15342;SDS011;7771;48.478;8.936;2022-10-17T04:31:02;3.10;;;2.80;;
15342;SDS011;7771;48.478;8.936;2022-10-17T04:33:29;3.43;;;2.50;;
15342;SDS011;7771;48.478;8.936;2022-10-17T04:35:56;4.93;;;2.93;;
15342;SDS011;7771;48.478;8.936;2022-10-17T04:38:22;5.03;;;3.03;;
15342;SDS011;7771;48.478;8.936;2022-10-17T04:40:49;3.27;;;2.67;;
15342;SDS011;7771;48.478;8.936;2022-10-17T04:43:17;5.00;;;2.63;;
15342;SDS011;7771;48.478;8.936;2022-10-17T04:45:43;3.50;;;2.60;;
15342;SDS011;7771;48.478;8.936;2022-10-17T04:48:10;5.77;;;3.20;;
15342;SDS011;7771;48.478;8.936;2022-10-17T04:50:37;5.07;;;3.00;;
15342;SDS011;7771;48.478;8.936;2022-10-17T04:53:04;3.07;;;2.73;;
15342;SDS011;7771;48.478;8.936;2022-10-17T04:55:30;4.10;;;3.70;;
15342;SDS011;7771;48.478;8.936;2022-10-17T04:57:58;4.43;;;2.80;;
15342;SDS011;7771;48.478;8.936;2022-10-17T05:00:24;3.50;;;3.10;;
15342;SDS011;7771;48.478;8.936;2022-10-17T05:02:52;6.83;;;2.80;;
15342;SDS011;7771;48.478;8.936;2022-10-17T05:05:18;3.57;;;2.60;;
15342;SDS011;7771;48.478;8.936;2022-10-17T05:07:45;2.97;;;2.67;;
15342;SDS011;7771;48.478;8.936;2022-10-17T05:10:12;3.90;;;2.90;;
15342;SDS011;7771;48.478;8.936;2022-10-17T05:12:39;4.97;;;3.00;;
15342;SDS011;7771;48.478;8.936;2022-10-17T05:15:06;4.33;;;3.03;;
15342;SDS011;7771;48.478;8.936;2022-10-17T05:17:34;5.07;;;2.50;;
15342;SDS011;7771;48.478;8.936;2022-10-17T05:20:01;7.43;;;2.63;;
15342;SDS011;7771;48.478;8.936;2022-10-17T05:22:29;4.10;;;2.80;;
15342;SDS011;7771;48.478;8.936;2022-10-17T05:24:55;3.20;;;2.83;;
15342;SDS011;7771;48.478;8.936;2022-10-17T05:27:22;7.83;;;2.90;;
15342;SDS011;7771;48.478;8.936;2022-10-17T05:29:49;5.00;;;2.80;;
15342;SDS011;7771;48.478;8.936;2022-10-17T05:32:17;5.17;;;2.90;;
15342;SDS011;7771;48.478;8.936;2022-10-17T05:34:44;4.03;;;2.73;;
15342;SDS011;7771;48.478;8.936;2022-10-17T05:37:11;5.00;;;3.30;;
15342;SDS011;7771;48.478;8.936;2022-10-17T05:39:38;3.87;;;3.43;;
15342;SDS011;7771;48.478;8.936;2022-10-17T05:42:06;5.63;;;2.87;;
15342;SDS011;7771;48.478;8.936;2022-10-17T05:44:32;6.23;;;3.27;;
15342;SDS011;7771;48.478;8.936;2022-10-17T05:46:59;4.63;;;3.37;;
15342;SDS011;7771;48.478;8.936;2022-10-17T05:49:26;4.60;;;3.40;;
15342;SDS011;7771;48.478;8.936;2022-10-17T05:51:52;5.50;;;3.60;;
15342;SDS011;7771;48.478;8.936;2022-10-17T05:54:20;5.50;;;4.17;;
15342;SDS011;7771;48.478;8.936;2022-10-17T05:56:50;3.70;;;3.40;;
15342;SDS011;7771;48.478;8.936;2022-10-17T05:59:14;3.87;;;3.47;;
15342;SDS011;7771;48.478;8.936;2022-10-17T06:01:41;4.07;;;3.10;;
15342;SDS011;7771;48.478;8.936;2022-10-17T06:04:08;4.97;;;3.43;;
15342;SDS011;7771;48.478;8.936;2022-10-17T06:06:35;7.50;;;3.60;;
15342;SDS011;7771;48.478;8.936;2022-10-17T06:09:02;4.33;;;3.73;;
15342;SDS011;7771;48.478;8.936;2022-10-17T06:11:29;23.40;;;5.20;;
15342;SDS011;7771;48.478;8.936;2022-10-17T06:13:56;8.87;;;4.17;;
15342;SDS011;7771;48.478;8.936;2022-10-17T06:16:23;8.13;;;3.60;;
15342;SDS011;7771;48.478;8.936;2022-10-17T06:18:49;6.03;;;3.70;;
15342;SDS011;7771;48.478;8.936;2022-10-17T06:21:17;5.13;;;3.50;;
15342;SDS011;7771;48.478;8.936;2022-10-17T06:23:43;5.43;;;4.90;;
15342;SDS011;7771;48.478;8.936;2022-10-17T06:26:10;5.10;;;3.27;;
15342;SDS011;7771;48.478;8.936;2022-10-17T06:28:36;3.77;;;3.10;;
15342;SDS011;7771;48.478;8.936;2022-10-17T06:31:06;4.37;;;3.43;;
15342;SDS011;7771;48.478;8.936;2022-10-17T06:33:33;5.80;;;4.10;;
15342;SDS011;7771;48.478;8.936;2022-10-17T06:36:00;11.20;;;6.43;;
15342;SDS011;7771;48.478;8.936;2022-10-17T06:38:26;12.03;;;7.17;;
15342;SDS011;7771;48.478;8.936;2022-10-17T06:40:54;6.07;;;4.80;;
15342;SDS011;7771;48.478;8.936;2022-10-17T06:43:20;6.40;;;3.60;;
15342;SDS011;7771;48.478;8.936;2022-10-17T06:45:47;6.67;;;3.80;;
15342;SDS011;7771;48.478;8.936;2022-10-17T06:48:14;5.57;;;3.20;;
15342;SDS011;7771;48.478;8.936;2022-10-17T06:50:40;3.00;;;2.70;;
15342;SDS011;7771;48.478;8.936;2022-10-17T06:53:07;4.63;;;2.80;;
15342;SDS011;7771;48.478;8.936;2022-10-17T06:55:34;6.53;;;3.23;;
15342;SDS011;7771;48.478;8.936;2022-10-17T06:58:03;3.63;;;2.70;;
15342;SDS011;7771;48.478;8.936;2022-10-17T07:00:30;5.80;;;3.00;;
15342;SDS011;7771;48.478;8.936;2022-10-17T07:02:58;8.73;;;2.90;;
15342;SDS011;7771;48.478;8.936;2022-10-17T07:05:25;5.63;;;2.70;;
15342;SDS011;7771;48.478;8.936;2022-10-17T07:07:52;3.30;;;3.00;;
15342;SDS011;7771;48.478;8.936;2022-10-17T07:10:19;4.50;;;2.77;;
15342;SDS011;7771;48.478;8.936;2022-10-17T07:12:46;8.87;;;3.00;;
15342;SDS011;7771;48.478;8.936;2022-10-17T07:15:13;5.77;;;3.20;;
15342;SDS011;7771;48.478;8.936;2022-10-17T07:17:40;6.23;;;2.83;;
15342;SDS011;7771;48.478;8.936;2022-10-17T07:20:08;7.67;;;2.70;;
15342;SDS011;7771;48.478;8.936;2022-10-17T07:22:35;12.13;;;7.80;;
15342;SDS011;7771;48.478;8.936;2022-10-17T07:25:02;30.27;;;17.93;;
15342;SDS011;7771;48.478;8.936;2022-10-17T07:27:29;44.43;;;26.60;;
15342;SDS011;7771;48.478;8.936;2022-10-17T07:29:56;45.00;;;28.27;;
15342;SDS011;7771;48.478;8.936;2022-10-17T07:32:24;42.47;;;27.77;;
15342;SDS011;7771;48.478;8.936;2022-10-17T07:34:51;39.67;;;27.27;;
15342;SDS011;7771;48.478;8.936;2022-10-17T07:37:18;37.63;;;24.27;;
15342;SDS011;7771;48.478;8.936;2022-10-17T07:39:44;39.53;;;24.80;;
15342;SDS011;7771;48.478;8.936;2022-10-17T07:42:11;45.00;;;26.53;;
15342;SDS011;7771;48.478;8.936;2022-10-17T07:44:38;41.60;;;25.40;;
15342;SDS011;7771;48.478;8.936;2022-10-17T07:47:06;44.40;;;27.20;;
15342;SDS011;7771;48.478;8.936;2022-10-17T07:49:33;47.57;;;28.00;;
15342;SDS011;7771;48.478;8.936;2022-10-17T07:52:00;47.50;;;30.57;;
15342;SDS011;7771;48.478;8.936;2022-10-17T07:54:26;47.43;;;31.27;;
15342;SDS011;7771;48.478;8.936;2022-10-17T07:56:54;38.53;;;25.00;;
15342;SDS011;7771;48.478;8.936;2022-10-17T07:59:21;33.23;;;21.83;;
15342;SDS011;7771;48.478;8.936;2022-10-17T08:01:47;26.70;;;17.70;;
15342;SDS011;7771;48.478;8.936;2022-10-17T08:04:15;15.07;;;10.37;;
15342;SDS011;7771;48.478;8.936;2022-10-17T08:06:41;7.57;;;4.60;;
15342;SDS011;7771;48.478;8.936;2022-10-17T08:09:08;7.40;;;4.43;;
15342;SDS011;7771;48.478;8.936;2022-10-17T08:11:35;9.88;;;3.87;;
15342;SDS011;7771;48.478;8.936;2022-10-17T08:14:01;5.97;;;4.00;;
15342;SDS011;7771;48.478;8.936;2022-10-17T08:16:28;5.00;;;4.15;;
15342;SDS011;7771;48.478;8.936;2022-10-17T08:18:54;5.80;;;3.60;;
15342;SDS011;7771;48.478;8.936;2022-10-17T08:21:21;7.18;;;3.78;;
15342;SDS011;7771;48.478;8.936;2022-10-17T08:23:48;3.62;;;3.33;;
15342;SDS011;7771;48.478;8.936;2022-10-17T08:26:15;3.60;;;3.10;;
15342;SDS011;7771;48.478;8.936;2022-10-17T08:28:42;5.43;;;3.80;;
15342;SDS011;7771;48.478;8.936;2022-10-17T08:31:09;5.32;;;3.47;;
15342;SDS011;7771;48.478;8.936;2022-10-17T08:33:35;6.25;;;2.80;;
15342;SDS011;7771;48.478;8.936;2022-10-17T08:36:02;5.95;;;2.97;;
15342;SDS011;7771;48.478;8.936;2022-10-17T08:38:28;5.00;;;2.78;;
15342;SDS011;7771;48.478;8.936;2022-10-17T08:40:57;7.50;;;3.50;;
15342;SDS011;7771;48.478;8.936;2022-10-17T08:43:26;3.65;;;2.90;;
15342;SDS011;7771;48.478;8.936;2022-10-17T08:45:55;6.30;;;3.33;;
15342;SDS011;7771;48.478;8.936;2022-10-17T08:48:23;3.90;;;3.10;;
15342;SDS011;7771;48.478;8.936;2022-10-17T08:50:52;3.85;;;2.67;;
15342;SDS011;7771;48.478;8.936;2022-10-17T08:53:28;4.80;;;3.08;;
15342;SDS011;7771;48.478;8.936;2022-10-17T08:58:44;6.22;;;3.05;;
15342;SDS011;7771;48.478;8.936;2022-10-17T09:03:55;7.05;;;3.03;;
15342;SDS011;7771;48.478;8.936;2022-10-17T09:06:25;4.55;;;3.42;;
15342;SDS011;7771;48.478;8.936;2022-10-17T09:08:54;9.15;;;4.57;;
15342;SDS011;7771;48.478;8.936;2022-10-17T09:11:26;5.28;;;4.32;;
15342;SDS011;7771;48.478;8.936;2022-10-17T09:14:02;5.30;;;4.80;;
15342;SDS011;7771;48.478;8.936;2022-10-17T09:19:11;5.40;;;4.60;;
15342;SDS011;7771;48.478;8.936;2022-10-17T09:21:55;6.12;;;4.50;;
15342;SDS011;7771;48.478;8.936;2022-10-17T09:24:29;7.15;;;4.70;;
15342;SDS011;7771;48.478;8.936;2022-10-17T09:26:55;8.15;;;4.57;;
15342;SDS011;7771;48.478;8.936;2022-10-17T09:29:23;6.30;;;4.20;;
15342;SDS011;7771;48.478;8.936;2022-10-17T09:31:53;3.97;;;3.47;;
15342;SDS011;7771;48.478;8.936;2022-10-17T09:34:29;6.62;;;3.25;;
15342;SDS011;7771;48.478;8.936;2022-10-17T09:36:56;6.90;;;4.40;;
15342;SDS011;7771;48.478;8.936;2022-10-17T09:39:22;9.68;;;4.37;;
15342;SDS011;7771;48.478;8.936;2022-10-17T09:41:50;4.72;;;4.25;;
15342;SDS011;7771;48.478;8.936;2022-10-17T09:44:22;5.62;;;4.65;;
15342;SDS011;7771;48.478;8.936;2022-10-17T09:49:38;7.45;;;4.37;;
15342;SDS011;7771;48.478;8.936;2022-10-17T09:52:04;5.87;;;3.60;;
15342;SDS011;7771;48.478;8.936;2022-10-17T09:54:36;5.32;;;3.37;;
15342;SDS011;7771;48.478;8.936;2022-10-17T09:57:08;6.25;;;3.90;;
15342;SDS011;7771;48.478;8.936;2022-10-17T09:59:36;12.48;;;4.93;;
15342;SDS011;7771;48.478;8.936;2022-10-17T10:04:35;5.55;;;3.95;;
15342;SDS011;7771;48.478;8.936;2022-10-17T10:07:03;6.22;;;3.90;;
15342;SDS011;7771;48.478;8.936;2022-10-17T10:09:30;11.20;;;3.90;;
15342;SDS011;7771;48.478;8.936;2022-10-17T10:11:56;6.03;;;4.50;;
15342;SDS011;7771;48.478;8.936;2022-10-17T10:14:28;5.87;;;3.37;;
15342;SDS011;7771;48.478;8.936;2022-10-17T10:16:53;7.05;;;6.32;;
15342;SDS011;7771;48.478;8.936;2022-10-17T10:19:25;5.78;;;3.85;;
15342;SDS011;7771;48.478;8.936;2022-10-17T10:21:54;4.90;;;4.20;;
15342;SDS011;7771;48.478;8.936;2022-10-17T10:24:20;7.35;;;3.25;;
15342;SDS011;7771;48.478;8.936;2022-10-17T10:26:48;5.35;;;3.95;;
15342;SDS011;7771;48.478;8.936;2022-10-17T10:29:21;8.70;;;4.55;;
15342;SDS011;7771;48.478;8.936;2022-10-17T10:31:47;8.85;;;4.32;;
15342;SDS011;7771;48.478;8.936;2022-10-17T10:34:20;5.53;;;3.80;;
15342;SDS011;7771;48.478;8.936;2022-10-17T10:36:51;4.03;;;3.55;;
15342;SDS011;7771;48.478;8.936;2022-10-17T10:39:28;7.70;;;4.87;;
15342;SDS011;7771;48.478;8.936;2022-10-17T10:41:57;6.28;;;4.28;;
15342;SDS011;7771;48.478;8.936;2022-10-17T10:44:25;6.15;;;4.70;;
15342;SDS011;7771;48.478;8.936;2022-10-17T10:47:04;9.68;;;4.35;;
15342;SDS011;7771;48.478;8.936;2022-10-17T10:49:33;7.00;;;3.40;;
15342;SDS011;7771;48.478;8.936;2022-10-17T10:51:59;5.25;;;3.75;;
15342;SDS011;7771;48.478;8.936;2022-10-17T10:54:28;6.90;;;3.37;;
15342;SDS011;7771;48.478;8.936;2022-10-17T10:56:55;5.87;;;4.28;;
15342;SDS011;7771;48.478;8.936;2022-10-17T10:59:29;6.15;;;3.58;;
15342;SDS011;7771;48.478;8.936;2022-10-17T11:01:55;5.28;;;2.92;;
15342;SDS011;7771;48.478;8.936;2022-10-17T11:07:18;3.92;;;3.30;;
15342;SDS011;7771;48.478;8.936;2022-10-17T11:09:53;7.87;;;3.50;;
15342;SDS011;7771;48.478;8.936;2022-10-17T11:12:24;4.65;;;3.30;;
15342;SDS011;7771;48.478;8.936;2022-10-17T11:14:56;5.22;;;3.20;;
15342;SDS011;7771;48.478;8.936;2022-10-17T11:17:38;6.50;;;3.30;;
15342;SDS011;7771;48.478;8.936;2022-10-17T11:20:10;4.80;;;2.85;;
15342;SDS011;7771;48.478;8.936;2022-10-17T11:22:39;4.62;;;2.67;;
15342;SDS011;7771;48.478;8.936;2022-10-17T11:25:29;4.00;;;3.03;;
15342;SDS011;7771;48.478;8.936;2022-10-17T11:27:55;5.62;;;3.35;;
15342;SDS011;7771;48.478;8.936;2022-10-17T11:30:22;4.37;;;2.80;;
15342;SDS011;7771;48.478;8.936;2022-10-17T11:32:51;5.10;;;3.00;;
15342;SDS011;7771;48.478;8.936;2022-10-17T11:35:19;5.65;;;3.40;;
15342;SDS011;7771;48.478;8.936;2022-10-17T11:37:48;3.30;;;2.92;;
15342;SDS011;7771;48.478;8.936;2022-10-17T11:40:17;3.28;;;2.70;;
15342;SDS011;7771;48.478;8.936;2022-10-17T11:42:52;4.62;;;3.20;;
15342;SDS011;7771;48.478;8.936;2022-10-17T11:45:25;8.18;;;3.28;;
15342;SDS011;7771;48.478;8.936;2022-10-17T11:47:54;6.57;;;2.83;;
15342;SDS011;7771;48.478;8.936;2022-10-17T11:50:23;5.75;;;3.20;;
15342;SDS011;7771;48.478;8.936;2022-10-17T11:53:04;3.22;;;2.80;;
15342;SDS011;7771;48.478;8.936;2022-10-17T11:55:43;10.38;;;9.38;;
15342;SDS011;7771;48.478;8.936;2022-10-17T11:58:14;3.97;;;3.10;;
15342;SDS011;7771;48.478;8.936;2022-10-17T12:00:49;3.05;;;1.70;;
15342;SDS011;7771;48.478;8.936;2022-10-17T12:03:18;2.45;;;1.40;;
15342;SDS011;7771;48.478;8.936;2022-10-17T12:05:55;2.72;;;1.30;;
15342;SDS011;7771;48.478;8.936;2022-10-17T12:11:06;1.95;;;1.50;;
15342;SDS011;7771;48.478;8.936;2022-10-17T12:13:49;2.95;;;1.10;;
15342;SDS011;7771;48.478;8.936;2022-10-17T12:24:25;3.10;;;1.40;;
15342;SDS011;7771;48.478;8.936;2022-10-17T12:26:53;4.85;;;1.20;;
15342;SDS011;7771;48.478;8.936;2022-10-17T12:29:24;2.47;;;1.27;;
15342;SDS011;7771;48.478;8.936;2022-10-17T12:31:50;2.78;;;0.95;;
15342;SDS011;7771;48.478;8.936;2022-10-17T12:34:17;3.28;;;1.17;;
15342;SDS011;7771;48.478;8.936;2022-10-17T12:36:45;4.87;;;1.42;;
15342;SDS011;7771;48.478;8.936;2022-10-17T12:39:39;2.42;;;1.23;;
15342;SDS011;7771;48.478;8.936;2022-10-17T12:41:52;4.47;;;1.40;;
15342;SDS011;7771;48.478;8.936;2022-10-17T12:44:34;1.80;;;1.00;;
15342;SDS011;7771;48.478;8.936;2022-10-17T12:47:26;3.22;;;1.70;;
15342;SDS011;7771;48.478;8.936;2022-10-17T12:49:56;2.03;;;1.20;;
15342;SDS011;7771;48.478;8.936;2022-10-17T12:52:59;3.65;;;1.33;;
15342;SDS011;7771;48.478;8.936;2022-10-17T12:55:22;3.53;;;1.52;;
15342;SDS011;7771;48.478;8.936;2022-10-17T12:57:52;5.00;;;1.37;;
15342;SDS011;7771;48.478;8.936;2022-10-17T13:00:26;1.90;;;1.10;;
15342;SDS011;7771;48.478;8.936;2022-10-17T13:03:12;2.72;;;1.23;;
15342;SDS011;7771;48.478;8.936;2022-10-17T13:05:42;1.40;;;1.10;;
15342;SDS011;7771;48.478;8.936;2022-10-17T13:08:14;2.33;;;0.98;;
15342;SDS011;7771;48.478;8.936;2022-10-17T13:10:36;2.78;;;1.30;;
15342;SDS011;7771;48.478;8.936;2022-10-17T13:13:11;3.78;;;1.33;;
15342;SDS011;7771;48.478;8.936;2022-10-17T13:15:44;3.45;;;1.10;;
15342;SDS011;7771;48.478;8.936;2022-10-17T13:18:12;3.85;;;1.23;;
15342;SDS011;7771;48.478;8.936;2022-10-17T13:20:33;2.83;;;1.10;;
15342;SDS011;7771;48.478;8.936;2022-10-17T13:23:00;5.30;;;1.23;;
15342;SDS011;7771;48.478;8.936;2022-10-17T13:25:26;1.87;;;1.08;;
15342;SDS011;7771;48.478;8.936;2022-10-17T13:28:02;1.95;;;1.30;;
15342;SDS011;7771;48.478;8.936;2022-10-17T13:30:26;3.37;;;1.45;;
15342;SDS011;7771;48.478;8.936;2022-10-17T13:32:53;3.90;;;1.30;;
15342;SDS011;7771;48.478;8.936;2022-10-17T13:35:25;2.85;;;1.23;;
15342;SDS011;7771;48.478;8.936;2022-10-17T13:37:50;3.97;;;1.52;;
15342;SDS011;7771;48.478;8.936;2022-10-17T13:40:17;3.20;;;1.50;;
15342;SDS011;7771;48.478;8.936;2022-10-17T13:42:44;3.30;;;1.75;;
15342;SDS011;7771;48.478;8.936;2022-10-17T13:45:16;7.35;;;1.98;;
15342;SDS011;7771;48.478;8.936;2022-10-17T13:47:41;2.87;;;2.10;;
15342;SDS011;7771;48.478;8.936;2022-10-17T13:50:14;3.35;;;1.27;;
15342;SDS011;7771;48.478;8.936;2022-10-17T13:52:35;3.35;;;1.50;;
15342;SDS011;7771;48.478;8.936;2022-10-17T13:55:07;2.00;;;1.40;;
15342;SDS011;7771;48.478;8.936;2022-10-17T13:57:32;6.35;;;1.35;;
15342;SDS011;7771;48.478;8.936;2022-10-17T14:00:00;1.55;;;1.23;;
15342;SDS011;7771;48.478;8.936;2022-10-17T14:02:27;3.12;;;1.30;;
15342;SDS011;7771;48.478;8.936;2022-10-17T14:05:14;4.43;;;1.60;;
15342;SDS011;7771;48.478;8.936;2022-10-17T14:07:55;2.45;;;1.77;;
15342;SDS011;7771;48.478;8.936;2022-10-17T14:10:23;3.10;;;1.50;;
15342;SDS011;7771;48.478;8.936;2022-10-17T14:12:50;3.92;;;1.40;;
15342;SDS011;7771;48.478;8.936;2022-10-17T14:15:17;1.20;;;1.10;;
15342;SDS011;7771;48.478;8.936;2022-10-17T14:17:44;3.87;;;1.30;;
15342;SDS011;7771;48.478;8.936;2022-10-17T14:20:16;2.85;;;1.25;;
15342;SDS011;7771;48.478;8.936;2022-10-17T14:22:41;1.62;;;1.40;;
15342;SDS011;7771;48.478;8.936;2022-10-17T14:27:52;3.92;;;2.10;;
15342;SDS011;7771;48.478;8.936;2022-10-17T14:30:32;4.25;;;1.30;;
15342;SDS011;7771;48.478;8.936;2022-10-17T14:33:00;4.07;;;1.87;;
15342;SDS011;7771;48.478;8.936;2022-10-17T14:35:28;1.50;;;1.35;;
15342;SDS011;7771;48.478;8.936;2022-10-17T14:37:56;1.40;;;1.25;;
15342;SDS011;7771;48.478;8.936;2022-10-17T14:40:23;2.70;;;1.30;;
15342;SDS011;7771;48.478;8.936;2022-10-17T14:42:50;2.60;;;1.27;;
15342;SDS011;7771;48.478;8.936;2022-10-17T14:45:22;3.83;;;1.65;;
15342;SDS011;7771;48.478;8.936;2022-10-17T14:47:59;2.28;;;1.40;;
15342;SDS011;7771;48.478;8.936;2022-10-17T14:50:25;3.05;;;2.08;;
15342;SDS011;7771;48.478;8.936;2022-10-17T14:53:00;2.87;;;1.80;;
15342;SDS011;7771;48.478;8.936;2022-10-17T14:55:29;3.87;;;2.45;;
15342;SDS011;7771;48.478;8.936;2022-10-17T14:57:55;3.03;;;2.47;;
15342;SDS011;7771;48.478;8.936;2022-10-17T15:00:22;4.55;;;1.90;;
15342;SDS011;7771;48.478;8.936;2022-10-17T15:02:49;3.00;;;2.05;;
15342;SDS011;7771;48.478;8.936;2022-10-17T15:05:16;2.03;;;1.83;;
15342;SDS011;7771;48.478;8.936;2022-10-17T15:07:43;3.28;;;1.50;;
15342;SDS011;7771;48.478;8.936;2022-10-17T15:10:47;4.00;;;2.75;;
15342;SDS011;7771;48.478;8.936;2022-10-17T15:12:59;2.92;;;2.62;;
15342;SDS011;7771;48.478;8.936;2022-10-17T15:15:27;9.15;;;6.28;;
15342;SDS011;7771;48.478;8.936;2022-10-17T15:17:53;4.55;;;2.37;;
15342;SDS011;7771;48.478;8.936;2022-10-17T15:20:21;4.68;;;3.33;;
15342;SDS011;7771;48.478;8.936;2022-10-17T15:22:48;5.32;;;1.60;;
15342;SDS011;7771;48.478;8.936;2022-10-17T15:25:14;5.57;;;3.78;;
15342;SDS011;7771;48.478;8.936;2022-10-17T15:27:41;3.78;;;2.28;;
15342;SDS011;7771;48.478;8.936;2022-10-17T15:30:15;1.87;;;1.50;;
15342;SDS011;7771;48.478;8.936;2022-10-17T15:32:43;7.95;;;4.68;;
15342;SDS011;7771;48.478;8.936;2022-10-17T15:35:10;3.90;;;2.45;;
15342;SDS011;7771;48.478;8.936;2022-10-17T15:37:36;6.65;;;2.60;;
15342;SDS011;7771;48.478;8.936;2022-10-17T15:40:03;8.38;;;4.30;;
15342;SDS011;7771;48.478;8.936;2022-10-17T15:42:30;9.85;;;5.90;;
15342;SDS011;7771;48.478;8.936;2022-10-17T15:44:57;4.82;;;2.60;;
15342;SDS011;7771;48.478;8.936;2022-10-17T15:47:27;4.22;;;3.50;;
15342;SDS011;7771;48.478;8.936;2022-10-17T15:49:53;6.50;;;4.35;;